createdAt,value
2018-06-16T00:01:27.817Z,14.50
2018-06-16T00:03:56.699Z,14.50
2018-06-16T00:06:25.201Z,14.50
2018-06-16T00:08:53.693Z,14.60
2018-06-16T00:11:23.209Z,14.60
2018-06-16T00:13:51.680Z,14.50
2018-06-16T00:16:20.170Z,14.50
2018-06-16T00:18:48.611Z,14.50
2018-06-16T00:21:17.117Z,14.50
2018-06-16T00:23:45.592Z,14.50
2018-06-16T00:26:14.129Z,14.40
2018-06-16T00:28:42.595Z,14.30
2018-06-16T00:31:11.081Z,14.30
2018-06-16T00:33:39.768Z,14.40
2018-06-16T00:36:08.215Z,14.30
2018-06-16T00:38:36.678Z,14.20
2018-06-16T00:41:05.138Z,14.30
2018-06-16T00:43:33.837Z,14.20
2018-06-16T00:46:02.398Z,14.20
2018-06-16T00:48:30.890Z,14.30
2018-06-16T00:50:59.341Z,14.30
2018-06-16T00:53:27.894Z,14.30
2018-06-16T00:55:56.438Z,14.30
2018-06-16T00:58:24.908Z,14.30
2018-06-16T01:00:53.401Z,14.40
2018-06-16T01:03:21.855Z,14.40
2018-06-16T01:05:50.407Z,14.40
2018-06-16T01:08:18.859Z,14.40
2018-06-16T01:10:47.339Z,14.30
2018-06-16T01:15:43.956Z,14.40
2018-06-16T01:18:12.408Z,14.40
2018-06-16T01:20:40.889Z,14.40
2018-06-16T01:23:09.369Z,14.30
2018-06-16T01:25:37.832Z,14.30
2018-06-16T01:28:06.336Z,14.30
2018-06-16T01:30:34.815Z,14.30
2018-06-16T01:33:03.275Z,14.30
2018-06-16T01:35:31.758Z,14.30
2018-06-16T01:38:00.230Z,14.30
2018-06-16T01:40:28.694Z,14.30
2018-06-16T01:42:57.233Z,14.30
2018-06-16T01:45:25.730Z,14.20
2018-06-16T01:47:54.189Z,14.20
2018-06-16T01:50:22.634Z,14.20
2018-06-16T01:52:51.148Z,14.10
2018-06-16T01:55:19.628Z,14.10
2018-06-16T01:57:48.118Z,14.10
2018-06-16T02:00:16.688Z,14.10
2018-06-16T02:02:45.140Z,14.10
2018-06-16T02:05:13.879Z,14.10
2018-06-16T02:07:42.379Z,14.00
2018-06-16T02:10:11.009Z,13.90
2018-06-16T02:12:39.462Z,13.90
2018-06-16T02:15:08.007Z,13.80
2018-06-16T02:17:36.492Z,13.80
2018-06-16T02:20:05.208Z,13.70
2018-06-16T02:22:33.772Z,13.70
2018-06-16T02:25:02.212Z,13.70
2018-06-16T02:27:30.675Z,13.70
2018-06-16T02:29:59.147Z,13.60
2018-06-16T02:32:27.642Z,13.60
2018-06-16T02:34:56.063Z,13.60
2018-06-16T02:37:24.558Z,13.50
2018-06-16T02:39:53.030Z,13.50
2018-06-16T02:42:21.492Z,13.60
2018-06-16T02:44:50.005Z,13.70
2018-06-16T02:47:18.531Z,13.60
2018-06-16T02:49:46.976Z,13.70
2018-06-16T02:52:15.466Z,13.80
2018-06-16T02:54:43.932Z,13.90
2018-06-16T02:57:12.405Z,13.80
2018-06-16T02:59:40.909Z,13.80
2018-06-16T03:02:09.778Z,13.70
2018-06-16T03:04:38.259Z,13.70
2018-06-16T03:07:07.167Z,13.60
2018-06-16T03:09:35.674Z,13.60
2018-06-16T03:12:04.137Z,13.50
2018-06-16T03:14:32.605Z,13.50
2018-06-16T03:17:01.076Z,13.50
2018-06-16T03:19:29.558Z,13.50
2018-06-16T03:21:58.060Z,13.40
2018-06-16T03:24:26.530Z,13.40
2018-06-16T03:26:54.995Z,13.30
2018-06-16T03:29:23.486Z,13.20
2018-06-16T03:31:51.928Z,13.20
2018-06-16T03:34:20.397Z,13.10
2018-06-16T03:36:48.914Z,13.10
2018-06-16T03:39:17.495Z,13.10
2018-06-16T03:41:45.964Z,13.10
2018-06-16T03:44:14.432Z,13.20
2018-06-16T03:46:42.898Z,13.20
2018-06-16T03:49:11.539Z,13.20
2018-06-16T03:51:40.021Z,13.10
2018-06-16T03:54:08.505Z,13.20
2018-06-16T03:56:36.966Z,13.20
2018-06-16T04:01:33.815Z,13.30
2018-06-16T04:04:02.317Z,13.40
2018-06-16T04:06:30.804Z,13.40
2018-06-16T04:08:59.265Z,13.60
2018-06-16T04:11:27.785Z,13.60
2018-06-16T04:13:56.279Z,13.70
2018-06-16T04:16:24.748Z,13.80
2018-06-16T04:18:53.185Z,13.90
2018-06-16T04:21:21.655Z,14.00
2018-06-16T04:23:50.106Z,14.10
2018-06-16T04:26:18.550Z,14.30
2018-06-16T04:28:47.046Z,14.30
2018-06-16T04:31:15.638Z,14.40
2018-06-16T04:33:44.109Z,14.50
2018-06-16T04:36:12.695Z,14.60
2018-06-16T04:38:41.155Z,14.70
2018-06-16T04:41:09.598Z,14.80
2018-06-16T04:43:38.254Z,14.90
2018-06-16T04:46:06.816Z,15.00
2018-06-16T04:48:35.314Z,15.10
2018-06-16T04:51:03.803Z,15.30
2018-06-16T04:53:32.224Z,15.30
2018-06-16T04:56:00.698Z,15.40
2018-06-16T04:58:29.187Z,15.50
2018-06-16T05:00:57.646Z,15.60
2018-06-16T05:03:26.113Z,15.70
2018-06-16T05:05:54.747Z,15.60
2018-06-16T05:08:23.189Z,15.70
2018-06-16T05:10:51.676Z,15.90
2018-06-16T05:13:20.160Z,15.90
2018-06-16T05:15:48.625Z,15.90
2018-06-16T05:18:17.187Z,15.90
2018-06-16T05:20:45.692Z,16.00
2018-06-16T05:23:14.175Z,15.90
2018-06-16T05:25:42.670Z,16.10
2018-06-16T05:28:11.171Z,16.20
2018-06-16T05:30:39.695Z,16.20
2018-06-16T05:33:08.169Z,16.40
2018-06-16T05:35:37.024Z,16.50
2018-06-16T05:38:05.475Z,16.60
2018-06-16T05:40:33.917Z,16.70
2018-06-16T05:43:02.409Z,16.70
2018-06-16T05:45:30.919Z,16.70
2018-06-16T05:47:59.496Z,16.90
2018-06-16T05:50:27.979Z,17.10
2018-06-16T05:52:56.447Z,17.20
2018-06-16T05:55:24.912Z,17.10
2018-06-16T05:57:53.391Z,17.30
2018-06-16T06:00:21.853Z,17.20
2018-06-16T06:02:50.303Z,17.60
2018-06-16T06:05:18.787Z,18.20
2018-06-16T06:07:47.356Z,18.40
2018-06-16T06:10:15.830Z,18.40
2018-06-16T06:12:44.532Z,18.50
2018-06-16T06:15:12.991Z,18.80
2018-06-16T06:17:41.477Z,19.10
2018-06-16T06:20:10.073Z,19.40
2018-06-16T06:22:38.515Z,19.80
2018-06-16T06:25:07.340Z,19.50
2018-06-16T06:27:35.946Z,19.40
2018-06-16T06:30:04.460Z,19.40
2018-06-16T06:32:32.903Z,19.50
2018-06-16T06:35:01.411Z,19.70
2018-06-16T06:37:29.877Z,19.90
2018-06-16T06:39:58.356Z,20.00
2018-06-16T06:42:26.872Z,20.20
2018-06-16T06:44:55.323Z,20.20
2018-06-16T06:47:23.764Z,20.30
2018-06-16T06:49:52.253Z,20.50
2018-06-16T06:52:20.857Z,21.00
2018-06-16T06:54:49.340Z,20.60
2018-06-16T06:57:17.803Z,20.90
2018-06-16T06:59:46.269Z,20.80
2018-06-16T07:02:14.717Z,20.50
2018-06-16T07:04:43.262Z,20.60
2018-06-16T07:07:11.837Z,20.80
2018-06-16T07:09:40.286Z,20.80
2018-06-16T07:12:08.780Z,20.40
2018-06-16T07:14:37.295Z,21.00
2018-06-16T07:17:05.781Z,20.30
2018-06-16T07:19:34.881Z,20.40
2018-06-16T07:22:03.338Z,20.80
2018-06-16T07:24:31.797Z,21.10
2018-06-16T07:27:00.356Z,21.30
2018-06-16T07:29:28.817Z,21.40
2018-06-16T07:31:57.281Z,21.20
2018-06-16T07:34:25.818Z,21.20
2018-06-16T07:36:54.268Z,21.20
2018-06-16T07:39:22.730Z,21.70
2018-06-16T07:41:51.228Z,21.70
2018-06-16T07:44:19.673Z,21.70
2018-06-16T07:46:48.095Z,21.70
2018-06-16T07:49:16.566Z,22.60
2018-06-16T07:51:45.132Z,23.50
2018-06-16T07:54:13.588Z,24.10
2018-06-16T07:56:42.060Z,25.00
2018-06-16T07:59:10.540Z,25.20
2018-06-16T08:01:38.992Z,25.70
2018-06-16T08:04:07.559Z,25.30
2018-06-16T08:06:36.135Z,24.40
2018-06-16T08:09:07.148Z,24.40
2018-06-16T08:11:35.694Z,24.00
2018-06-16T08:14:04.196Z,23.70
2018-06-16T08:16:32.642Z,23.80
2018-06-16T08:19:01.305Z,24.10
2018-06-16T08:21:29.775Z,23.40
2018-06-16T08:23:58.257Z,24.00
2018-06-16T08:26:26.745Z,23.80
2018-06-16T08:28:55.423Z,23.90
2018-06-16T08:31:24.345Z,24.60
2018-06-16T08:33:52.835Z,24.60
2018-06-16T08:36:21.320Z,24.50
2018-06-16T08:38:49.762Z,24.70
2018-06-16T08:41:19.085Z,24.60
2018-06-16T08:43:47.543Z,25.40
2018-06-16T08:46:16.027Z,25.20
2018-06-16T08:48:44.549Z,25.60
2018-06-16T08:51:12.988Z,24.50
2018-06-16T08:53:41.451Z,24.90
2018-06-16T08:56:10.017Z,25.20
2018-06-16T08:58:38.656Z,26.20
2018-06-16T09:01:07.112Z,26.40
2018-06-16T09:03:35.612Z,26.50
2018-06-16T09:06:04.080Z,26.70
2018-06-16T09:08:32.535Z,26.50
2018-06-16T09:11:01.194Z,26.00
2018-06-16T09:13:29.694Z,25.10
2018-06-16T09:15:58.141Z,24.70
2018-06-16T09:18:26.668Z,24.30
2018-06-16T09:20:55.452Z,23.00
2018-06-16T09:23:23.910Z,23.30
2018-06-16T09:25:52.380Z,23.70
2018-06-16T09:28:20.905Z,23.80
2018-06-16T09:30:49.432Z,23.60
2018-06-16T09:33:17.934Z,23.40
2018-06-16T09:35:46.375Z,23.50
2018-06-16T09:38:14.790Z,23.30
2018-06-16T09:40:43.274Z,23.40
2018-06-16T09:43:11.732Z,24.00
2018-06-16T09:45:40.244Z,23.70
2018-06-16T09:48:08.730Z,23.20
2018-06-16T09:50:37.159Z,22.90
2018-06-16T09:53:05.638Z,22.90
2018-06-16T09:55:34.132Z,22.10
2018-06-16T09:58:02.614Z,21.80
2018-06-16T10:00:36.416Z,21.20
2018-06-16T10:03:04.919Z,21.00
2018-06-16T10:05:33.400Z,20.90
2018-06-16T10:08:01.883Z,20.80
2018-06-16T10:10:30.383Z,20.90
2018-06-16T10:12:58.842Z,21.30
2018-06-16T10:15:27.320Z,21.90
2018-06-16T10:17:55.913Z,22.80
2018-06-16T10:20:24.616Z,23.30
2018-06-16T10:22:53.116Z,24.00
2018-06-16T10:25:21.769Z,25.30
2018-06-16T10:27:50.436Z,24.90
2018-06-16T10:30:18.959Z,25.30
2018-06-16T10:32:47.466Z,25.70
2018-06-16T10:35:15.975Z,25.90
2018-06-16T10:37:44.474Z,25.40
2018-06-16T10:40:12.971Z,24.70
2018-06-16T10:42:41.439Z,24.40
2018-06-16T10:45:09.939Z,24.00
2018-06-16T10:47:38.415Z,24.90
2018-06-16T10:50:06.985Z,26.30
2018-06-16T10:52:35.507Z,27.10
2018-06-16T10:55:04.058Z,28.70
2018-06-16T10:57:32.649Z,29.70
2018-06-16T11:00:01.368Z,31.20
2018-06-16T11:02:29.846Z,32.30
2018-06-16T11:04:58.340Z,32.20
2018-06-16T11:07:26.852Z,31.80
2018-06-16T11:09:55.346Z,30.10
2018-06-16T11:12:23.805Z,30.00
2018-06-16T11:14:52.880Z,29.90
2018-06-16T11:17:21.352Z,30.60
2018-06-16T11:19:49.831Z,30.30
2018-06-16T11:22:18.353Z,30.10
2018-06-16T11:24:46.899Z,31.20
2018-06-16T11:27:15.369Z,30.80
2018-06-16T11:29:43.887Z,30.30
2018-06-16T11:32:12.415Z,29.70
2018-06-16T11:34:40.905Z,28.80
2018-06-16T11:37:09.402Z,28.90
2018-06-16T11:39:37.934Z,30.10
2018-06-16T11:42:06.445Z,31.60
2018-06-16T11:44:34.926Z,30.10
2018-06-16T11:47:03.433Z,30.30
2018-06-16T11:49:31.881Z,30.70
2018-06-16T11:52:00.369Z,31.20
2018-06-16T11:54:28.809Z,32.00
2018-06-16T11:56:57.373Z,32.30
2018-06-16T11:59:25.986Z,33.20
2018-06-16T12:01:54.449Z,32.30
2018-06-16T12:04:22.939Z,31.90
2018-06-16T12:06:51.428Z,31.90
2018-06-16T12:09:19.922Z,32.20
2018-06-16T12:14:16.633Z,31.80
2018-06-16T12:16:45.137Z,32.30
2018-06-16T12:19:13.596Z,32.10
2018-06-16T12:21:42.069Z,30.70
2018-06-16T12:24:10.531Z,32.50
2018-06-16T12:26:38.992Z,31.80
2018-06-16T12:29:07.490Z,30.70
2018-06-16T12:31:35.938Z,30.10
2018-06-16T12:36:32.557Z,27.70
2018-06-16T12:39:01.037Z,27.60
2018-06-16T12:41:29.811Z,28.30
2018-06-16T12:43:58.273Z,31.00
2018-06-16T12:46:26.714Z,32.00
2018-06-16T12:48:55.239Z,31.60
2018-06-16T12:51:23.706Z,31.30
2018-06-16T12:53:52.169Z,30.00
2018-06-16T12:56:20.649Z,29.10
2018-06-16T12:58:49.145Z,28.90
2018-06-16T13:03:45.756Z,29.00
2018-06-16T13:06:14.235Z,30.00
2018-06-16T13:08:42.710Z,30.20
2018-06-16T13:11:11.603Z,30.20
2018-06-16T13:13:40.179Z,30.40
2018-06-16T13:16:08.866Z,28.80
2018-06-16T13:18:37.307Z,28.40
2018-06-16T13:21:05.895Z,28.50
2018-06-16T13:23:34.447Z,27.70
2018-06-16T13:26:02.905Z,27.30
2018-06-16T13:28:31.409Z,28.40
2018-06-16T13:30:59.882Z,29.60
2018-06-16T13:33:28.469Z,29.60
2018-06-16T13:35:56.995Z,29.10
2018-06-16T13:38:25.458Z,28.20
2018-06-16T13:40:53.973Z,27.90
2018-06-16T13:43:22.579Z,27.40
2018-06-16T13:45:51.025Z,27.10
2018-06-16T13:48:19.493Z,27.70
2018-06-16T13:50:48.035Z,28.30
2018-06-16T13:53:16.449Z,28.20
2018-06-16T13:55:44.899Z,27.40
2018-06-16T13:58:13.463Z,26.70
2018-06-16T14:00:41.931Z,26.00
2018-06-16T14:03:10.382Z,25.50
2018-06-16T14:05:38.936Z,25.40
2018-06-16T14:08:07.542Z,25.40
2018-06-16T14:10:36.472Z,25.60
2018-06-16T14:13:05.276Z,25.20
2018-06-16T14:15:33.832Z,25.00
2018-06-16T14:18:02.297Z,24.60
2018-06-16T14:20:30.782Z,24.50
2018-06-16T14:22:59.225Z,24.70
2018-06-16T14:25:27.897Z,25.00
2018-06-16T14:27:56.364Z,25.20
2018-06-16T14:30:24.965Z,25.00
2018-06-16T14:32:53.428Z,25.10
2018-06-16T14:35:21.923Z,25.20
2018-06-16T14:37:50.415Z,25.50
2018-06-16T14:40:18.972Z,26.20
2018-06-16T14:42:47.700Z,26.30
2018-06-16T14:45:16.211Z,26.30
2018-06-16T14:47:44.731Z,26.10
2018-06-16T14:50:13.228Z,26.30
2018-06-16T14:52:41.710Z,26.30
2018-06-16T14:55:10.148Z,25.80
2018-06-16T14:57:38.680Z,25.10
2018-06-16T15:00:07.171Z,24.90
2018-06-16T15:02:35.625Z,24.70
2018-06-16T15:05:04.769Z,24.70
2018-06-16T15:07:33.183Z,24.30
2018-06-16T15:10:01.687Z,23.80
2018-06-16T15:12:30.203Z,23.80
2018-06-16T15:14:58.654Z,24.30
2018-06-16T15:17:27.107Z,23.80
2018-06-16T15:19:55.604Z,23.60
2018-06-16T15:22:24.045Z,23.50
2018-06-16T15:24:52.487Z,23.70
2018-06-16T15:27:20.988Z,23.80
2018-06-16T15:29:49.433Z,24.20
2018-06-16T15:32:18.007Z,24.80
2018-06-16T15:34:46.512Z,25.30
2018-06-16T15:37:14.974Z,25.30
2018-06-16T15:39:43.445Z,25.50
2018-06-16T15:42:12.067Z,25.40
2018-06-16T15:44:40.648Z,25.50
2018-06-16T15:47:09.109Z,25.60
2018-06-16T15:49:37.591Z,25.70
2018-06-16T15:52:06.302Z,25.40
2018-06-16T15:54:34.748Z,25.10
2018-06-16T15:57:03.250Z,25.30
2018-06-16T15:59:31.767Z,25.70
2018-06-16T16:02:00.211Z,26.10
2018-06-16T16:04:28.773Z,25.20
2018-06-16T16:06:57.261Z,24.70
2018-06-16T16:09:25.723Z,24.40
2018-06-16T16:11:54.192Z,24.70
2018-06-16T16:14:22.642Z,24.00
2018-06-16T16:16:51.106Z,24.40
2018-06-16T16:19:19.588Z,25.10
2018-06-16T16:21:48.158Z,25.40
2018-06-16T16:24:16.607Z,25.40
2018-06-16T16:26:45.272Z,24.60
2018-06-16T16:29:13.749Z,23.60
2018-06-16T16:31:42.188Z,23.40
2018-06-16T16:34:10.657Z,23.00
2018-06-16T16:36:39.160Z,22.90
2018-06-16T16:39:08.874Z,22.80
2018-06-16T16:41:37.582Z,23.10
2018-06-16T16:44:06.069Z,23.10
2018-06-16T16:46:34.544Z,23.20
2018-06-16T16:49:03.023Z,22.80
2018-06-16T16:51:31.582Z,22.50
2018-06-16T16:54:00.141Z,22.30
2018-06-16T16:56:28.633Z,22.10
2018-06-16T16:58:57.155Z,22.30
2018-06-16T17:01:25.698Z,22.30
2018-06-16T17:03:54.621Z,22.40
2018-06-16T17:06:23.135Z,22.90
2018-06-16T17:08:51.571Z,24.40
2018-06-16T17:11:20.144Z,25.20
2018-06-16T17:13:48.680Z,25.00
2018-06-16T17:16:17.148Z,24.50
2018-06-16T17:18:45.644Z,23.30
2018-06-16T17:21:14.193Z,22.70
2018-06-16T17:23:42.628Z,22.40
2018-06-16T17:26:11.284Z,22.30
2018-06-16T17:28:39.762Z,22.10
2018-06-16T17:31:08.208Z,22.00
2018-06-16T17:33:36.682Z,22.00
2018-06-16T17:36:05.198Z,21.90
2018-06-16T17:38:33.644Z,21.90
2018-06-16T17:41:02.130Z,21.90
2018-06-16T17:43:30.664Z,21.90
2018-06-16T17:45:59.097Z,21.80
2018-06-16T17:48:28.452Z,21.80
2018-06-16T17:50:56.947Z,21.80
2018-06-16T17:53:25.429Z,21.70
2018-06-16T17:55:53.918Z,21.80
2018-06-16T17:58:22.369Z,21.70
2018-06-16T18:00:50.833Z,21.70
2018-06-16T18:03:19.304Z,21.60
2018-06-16T18:05:47.806Z,21.50
2018-06-16T18:08:16.260Z,21.50
2018-06-16T18:10:44.774Z,21.30
2018-06-16T18:13:13.473Z,21.20
2018-06-16T18:15:41.994Z,21.10
2018-06-16T18:18:10.440Z,21.20
2018-06-16T18:20:38.906Z,21.10
2018-06-16T18:23:07.410Z,21.00
2018-06-16T18:25:35.883Z,21.00
2018-06-16T18:28:04.534Z,20.80
2018-06-16T18:30:33.025Z,20.70
2018-06-16T18:33:01.574Z,20.70
2018-06-16T18:35:30.043Z,20.50
2018-06-16T18:37:58.502Z,20.50
2018-06-16T18:40:26.984Z,20.50
2018-06-16T18:42:55.432Z,20.50
2018-06-16T18:45:23.889Z,20.60
2018-06-16T18:47:52.396Z,20.60
2018-06-16T18:50:20.994Z,20.60
2018-06-16T18:52:49.583Z,20.60
2018-06-16T18:55:18.081Z,20.60
2018-06-16T18:57:46.958Z,20.50
2018-06-16T19:00:15.538Z,20.50
2018-06-16T19:02:44.046Z,20.40
2018-06-16T19:05:12.501Z,20.30
2018-06-16T19:07:41.085Z,20.10
2018-06-16T19:10:09.588Z,20.00
2018-06-16T19:12:38.105Z,19.80
2018-06-16T19:15:06.617Z,19.70
2018-06-16T19:17:35.095Z,19.50
2018-06-16T19:20:03.678Z,19.30
2018-06-16T19:22:32.739Z,19.20
2018-06-16T19:25:01.238Z,19.10
2018-06-16T19:27:29.698Z,19.00
2018-06-16T19:29:58.177Z,19.00
2018-06-16T19:32:26.743Z,18.90
2018-06-16T19:34:55.276Z,18.80
2018-06-16T19:37:23.738Z,18.70
2018-06-16T19:42:20.380Z,18.50
2018-06-16T19:44:48.853Z,18.40
2018-06-16T19:47:17.344Z,18.30
2018-06-16T19:49:45.828Z,18.40
2018-06-16T19:52:14.300Z,18.40
2018-06-16T19:54:43.388Z,18.50
2018-06-16T19:57:12.035Z,18.30
2018-06-16T19:59:40.476Z,18.20
2018-06-16T20:02:09.049Z,18.10
2018-06-16T20:07:05.723Z,17.90
2018-06-16T20:12:02.524Z,17.70
2018-06-16T20:14:31.127Z,17.60
2018-06-16T20:16:59.607Z,17.40
2018-06-16T20:19:28.077Z,17.20
2018-06-16T20:21:56.670Z,17.10
2018-06-16T20:24:25.177Z,16.90
2018-06-16T20:26:53.617Z,16.80
2018-06-16T20:29:22.109Z,16.60
2018-06-16T20:31:50.734Z,16.60
2018-06-16T20:34:19.264Z,16.40
2018-06-16T20:36:48.378Z,16.10
2018-06-16T20:39:16.895Z,16.00
2018-06-16T20:41:45.653Z,15.70
2018-06-16T20:44:14.233Z,15.50
2018-06-16T20:46:42.775Z,15.40
2018-06-16T20:49:11.250Z,15.30
2018-06-16T20:51:39.782Z,15.30
2018-06-16T20:54:08.303Z,15.50
2018-06-16T20:56:36.813Z,15.70
2018-06-16T20:59:05.531Z,15.80
2018-06-16T21:01:34.040Z,15.80
2018-06-16T21:04:02.512Z,15.80
2018-06-16T21:06:31.085Z,15.80
2018-06-16T21:08:59.625Z,15.70
2018-06-16T21:11:28.144Z,15.60
2018-06-16T21:13:56.644Z,15.40
2018-06-16T21:16:25.128Z,15.30
2018-06-16T21:18:53.857Z,15.20
2018-06-16T21:21:22.723Z,15.20
2018-06-16T21:23:51.259Z,15.10
2018-06-16T21:26:19.736Z,15.00
2018-06-16T21:28:48.230Z,14.80
2018-06-16T21:31:16.718Z,14.80
2018-06-16T21:33:45.292Z,14.80
2018-06-16T21:36:13.787Z,14.60
2018-06-16T21:38:42.254Z,14.50
2018-06-16T21:41:11.097Z,14.40
2018-06-16T21:43:39.732Z,14.30
2018-06-16T21:46:08.354Z,14.10
2018-06-16T21:48:36.809Z,14.00
2018-06-16T21:51:05.296Z,14.00
2018-06-16T21:53:34.009Z,14.00
2018-06-16T21:56:02.497Z,13.80
2018-06-16T21:58:31.002Z,13.60
2018-06-16T22:00:59.487Z,13.50
2018-06-16T22:05:56.109Z,13.20
2018-06-16T22:08:29.792Z,13.10
2018-06-16T22:10:58.327Z,13.00
2018-06-16T22:13:26.775Z,12.90
2018-06-16T22:15:55.249Z,12.90
2018-06-16T22:18:23.812Z,12.90
2018-06-16T22:20:52.301Z,12.80
2018-06-16T22:23:20.785Z,12.70
2018-06-16T22:25:49.260Z,12.70
2018-06-16T22:28:17.843Z,12.50
2018-06-16T22:30:46.484Z,12.60
2018-06-16T22:33:14.970Z,12.60
2018-06-16T22:35:43.480Z,12.50
2018-06-16T22:38:12.089Z,12.40
2018-06-16T22:40:40.655Z,12.50
2018-06-16T22:43:09.152Z,12.60
2018-06-16T22:45:37.629Z,12.70
2018-06-16T22:48:06.162Z,12.70
2018-06-16T22:50:34.621Z,12.70
2018-06-16T22:53:03.182Z,12.80
2018-06-16T22:55:31.633Z,12.70
2018-06-16T22:58:00.117Z,12.70
2018-06-16T23:00:29.245Z,12.80
2018-06-16T23:02:58.529Z,12.80
2018-06-16T23:05:27.027Z,12.90
2018-06-16T23:07:55.574Z,13.10
2018-06-16T23:10:24.891Z,13.20
2018-06-16T23:12:53.376Z,13.40
2018-06-16T23:15:21.875Z,13.60
2018-06-16T23:17:50.362Z,13.60
2018-06-16T23:20:18.859Z,13.70
2018-06-16T23:22:47.356Z,13.80
2018-06-16T23:25:15.817Z,13.70
2018-06-16T23:27:44.268Z,13.70
2018-06-16T23:30:12.876Z,13.80
2018-06-16T23:32:41.371Z,13.80
2018-06-16T23:35:09.874Z,13.80
2018-06-16T23:37:38.356Z,13.80
2018-06-16T23:40:06.820Z,13.80
2018-06-16T23:42:35.263Z,13.70
2018-06-16T23:45:03.829Z,13.70
2018-06-16T23:47:32.265Z,13.70
2018-06-16T23:50:00.813Z,13.80
2018-06-16T23:52:29.393Z,13.80
2018-06-16T23:54:57.993Z,13.90
2018-06-16T23:57:26.497Z,13.90
2018-06-16T23:59:55.166Z,14.00
